Time;durP1;ratioP1;P1;durP2;ratioP2;P2;SDS_P1;SDS_P2;PMS_P1;PMS_P2;Temp;Humidity;BMP_temperature;BMP_pressure;BME280_temperature;BME280_humidity;BME280_pressure;Samples;Min_cycle;Max_cycle;Signal;HPM_P1;HPM_P2
2022/04/18 03:02:07;;;;;;;0.80;0.73;;;9.20;57.20;;;;;;5332696;23;21023;-70
2022/04/18 03:04:34;;;;;;;0.70;0.70;;;9.20;57.20;;;;;;4935492;29;20452;-70
2022/04/18 03:07:01;;;;;;;2.50;0.70;;;9.20;57.10;;;;;;4935836;29;20447;-71
2022/04/18 03:09:28;;;;;;;0.70;0.70;;;9.20;57.20;;;;;;4935836;29;20526;-71
2022/04/18 03:11:56;;;;;;;0.70;0.70;;;9.20;57.30;;;;;;4935795;29;20562;-71
2022/04/18 03:14:32;;;;;;;0.70;0.60;;;9.20;57.30;;;;;;4935579;29;20940;-71
2022/04/18 03:16:59;;;;;;;0.60;0.50;;;9.20;57.30;;;;;;4935721;29;20615;-71
2022/04/18 03:19:27;;;;;;;0.70;0.70;;;9.20;57.40;;;;;;4935344;29;20849;-72
2022/04/18 03:21:54;;;;;;;0.70;0.67;;;9.20;57.20;;;;;;4935636;29;20464;-71
2022/04/18 03:24:21;;;;;;;0.70;0.70;;;9.20;57.40;;;;;;4935635;29;20526;-71
2022/04/18 03:26:47;;;;;;;0.70;0.70;;;9.20;57.60;;;;;;4935506;29;20448;-71
2022/04/18 03:29:14;;;;;;;0.70;0.70;;;9.20;57.90;;;;;;4935366;29;20481;-70
2022/04/18 03:31:41;;;;;;;0.90;0.80;;;9.10;58.00;;;;;;4935443;29;20528;-70
2022/04/18 03:34:07;;;;;;;0.80;0.70;;;9.00;58.20;;;;;;4935770;29;20447;-71
2022/04/18 03:42:04;;;;;;;0.70;0.60;;;9.10;57.80;;;;;;4935071;29;20821;-71
2022/04/18 03:44:31;;;;;;;0.73;0.73;;;9.20;57.60;;;;;;4938591;29;20455;-72
2022/04/18 03:46:58;;;;;;;0.70;0.70;;;9.10;57.80;;;;;;4939818;29;20455;-71
2022/04/18 03:49:25;;;;;;;0.70;0.70;;;9.10;57.80;;;;;;4939366;29;20880;-71
2022/04/18 03:51:53;;;;;;;0.70;0.70;;;9.10;58.00;;;;;;4938973;29;20476;-70
2022/04/18 03:54:20;;;;;;;0.70;0.70;;;9.10;58.00;;;;;;4939208;29;20460;-70
2022/04/18 03:56:46;;;;;;;0.70;0.70;;;9.00;58.00;;;;;;4938981;29;20518;-72
2022/04/18 03:59:13;;;;;;;0.70;0.70;;;9.00;58.20;;;;;;4938696;29;20867;-71
2022/04/18 04:01:40;;;;;;;0.70;0.70;;;9.00;58.20;;;;;;4938628;29;21066;-70
2022/04/18 04:04:06;;;;;;;0.70;0.70;;;9.00;58.10;;;;;;4938954;29;20482;-71
2022/04/18 04:06:33;;;;;;;0.70;0.67;;;9.00;57.90;;;;;;4939037;29;20443;-71
2022/04/18 04:09:01;;;;;;;0.80;0.80;;;8.90;58.20;;;;;;4938730;29;20530;-71
2022/04/18 04:11:28;;;;;;;0.70;0.60;;;8.90;58.40;;;;;;4938649;29;20479;-72
2022/04/18 04:13:54;;;;;;;0.70;0.70;;;8.80;58.60;;;;;;4938796;29;20447;-72
2022/04/18 04:16:21;;;;;;;0.73;0.73;;;8.80;58.90;;;;;;4938531;29;20515;-71
2022/04/18 04:18:49;;;;;;;0.70;0.70;;;8.80;58.80;;;;;;4938626;29;20451;-71
2022/04/18 04:21:16;;;;;;;0.70;0.60;;;8.80;58.80;;;;;;4938414;29;20482;-71
2022/04/18 04:23:42;;;;;;;0.70;0.70;;;8.80;58.80;;;;;;4938699;29;20440;-72
2022/04/18 04:26:11;;;;;;;0.67;0.63;;;8.70;58.80;;;;;;4938523;29;20443;-71
2022/04/18 04:28:37;;;;;;;0.80;0.80;;;8.70;58.60;;;;;;4938414;29;20456;-71
2022/04/18 04:31:04;;;;;;;0.73;0.73;;;8.70;58.30;;;;;;4938248;29;20468;-71
2022/04/18 04:33:31;;;;;;;0.70;0.70;;;8.60;58.50;;;;;;4938276;29;20530;-71
2022/04/18 04:35:58;;;;;;;0.70;0.70;;;8.70;58.50;;;;;;4938358;29;20480;-72
2022/04/18 04:38:25;;;;;;;0.70;0.70;;;8.70;58.60;;;;;;4938945;29;20538;-71
2022/04/18 04:40:53;;;;;;;0.80;0.80;;;8.70;58.50;;;;;;4938204;29;20480;-71
2022/04/18 04:43:25;;;;;;;0.70;0.70;;;8.70;58.70;;;;;;4937850;29;20535;-72
2022/04/18 04:45:52;;;;;;;0.70;0.70;;;8.70;58.90;;;;;;4937937;29;20442;-71
2022/04/18 04:48:18;;;;;;;0.70;0.60;;;8.70;58.90;;;;;;4937577;29;20452;-71
2022/04/18 04:50:45;;;;;;;0.73;0.73;;;8.70;58.90;;;;;;4937949;29;20464;-71
2022/04/18 04:53:12;;;;;;;0.77;0.77;;;8.70;58.70;;;;;;4937886;29;20456;-71
2022/04/18 04:55:38;;;;;;;0.80;0.80;;;8.80;58.70;;;;;;4937126;29;20939;-72
2022/04/18 04:58:05;;;;;;;0.70;0.70;;;8.80;58.50;;;;;;4937573;29;20452;-72
2022/04/18 05:00:33;;;;;;;0.70;0.70;;;8.90;58.20;;;;;;4937539;29;20451;-71
2022/04/18 05:03:00;;;;;;;0.70;0.60;;;9.00;58.20;;;;;;4937147;29;20459;-72
2022/04/18 05:05:26;;;;;;;0.80;0.70;;;9.00;58.10;;;;;;4937554;29;20452;-71
2022/04/18 05:07:53;;;;;;;0.90;0.70;;;9.20;57.60;;;;;;4937578;29;20444;-72
2022/04/18 05:10:20;;;;;;;0.70;0.60;;;9.30;57.30;;;;;;4937019;29;20503;-72
2022/04/18 05:12:47;;;;;;;0.80;0.80;;;9.50;57.30;;;;;;4937270;29;20531;-70
2022/04/18 05:15:13;;;;;;;0.63;0.60;;;9.60;57.50;;;;;;4936893;29;20858;-72
2022/04/18 05:17:41;;;;;;;0.80;0.80;;;9.70;57.50;;;;;;4937150;29;20542;-70
2022/04/18 05:20:10;;;;;;;0.70;0.70;;;9.80;57.70;;;;;;4937081;29;20451;-71
2022/04/18 05:22:36;;;;;;;0.70;0.70;;;10.00;57.10;;;;;;4937103;29;20546;-71
2022/04/18 05:25:04;;;;;;;0.70;0.70;;;10.20;56.50;;;;;;4937129;29;20460;-71
2022/04/18 05:27:31;;;;;;;0.70;0.70;;;10.30;54.90;;;;;;4936774;29;20443;-71
2022/04/18 05:29:57;;;;;;;0.80;0.67;;;10.50;54.10;;;;;;4937152;29;20455;-71
2022/04/18 05:32:24;;;;;;;0.70;0.70;;;10.60;53.90;;;;;;4936990;29;20467;-71
2022/04/18 05:34:52;;;;;;;0.77;0.77;;;10.70;53.10;;;;;;4936875;29;20459;-71
2022/04/18 05:37:18;;;;;;;0.80;0.80;;;10.80;53.10;;;;;;4936606;29;20483;-71
2022/04/18 05:39:45;;;;;;;0.70;0.70;;;10.80;52.50;;;;;;4936661;29;20585;-71
2022/04/18 05:42:12;;;;;;;0.90;0.80;;;10.90;52.60;;;;;;4936259;29;21011;-71
2022/04/18 05:44:38;;;;;;;0.70;0.70;;;11.10;51.80;;;;;;4936306;29;20491;-71
2022/04/18 05:47:05;;;;;;;1.47;0.90;;;11.10;50.70;;;;;;4936556;29;20503;-71
2022/04/18 05:49:32;;;;;;;0.90;0.90;;;11.30;51.30;;;;;;4936731;29;20466;-72
2022/04/18 05:52:00;;;;;;;0.90;0.90;;;11.40;50.80;;;;;;4936657;29;20476;-71
2022/04/18 05:54:27;;;;;;;0.90;0.80;;;11.10;50.50;;;;;;4936658;29;20882;-71
2022/04/18 05:56:53;;;;;;;0.70;0.70;;;10.80;50.90;;;;;;4936652;29;21012;-71
2022/04/18 05:59:20;;;;;;;0.70;0.70;;;11.00;51.40;;;;;;4936243;29;20456;-71
2022/04/18 06:01:47;;;;;;;0.70;0.70;;;10.90;51.70;;;;;;4936186;29;20574;-71
2022/04/18 06:04:13;;;;;;;0.70;0.70;;;10.90;51.60;;;;;;4936081;29;20452;-71
2022/04/18 06:06:40;;;;;;;0.70;0.70;;;11.00;50.90;;;;;;4936225;29;20448;-71
2022/04/18 06:09:08;;;;;;;0.80;0.70;;;11.10;51.70;;;;;;4936343;29;20539;-71
2022/04/18 06:11:35;;;;;;;0.70;0.60;;;11.30;51.60;;;;;;4935872;29;20472;-71
2022/04/18 06:14:02;;;;;;;0.80;0.80;;;11.30;51.00;;;;;;4935969;29;20943;-71
2022/04/18 06:16:28;;;;;;;0.70;0.70;;;11.30;50.60;;;;;;4935845;29;20797;-71
2022/04/18 06:18:55;;;;;;;0.70;0.60;;;11.20;50.80;;;;;;4936100;29;20456;-71
2022/04/18 06:21:21;;;;;;;0.80;0.67;;;11.40;51.60;;;;;;4935807;29;20476;-71
2022/04/18 06:23:48;;;;;;;1.20;0.80;;;11.60;50.10;;;;;;4936197;29;20450;-71
2022/04/18 06:26:16;;;;;;;1.37;0.67;;;11.60;51.20;;;;;;4936109;29;20455;-71
2022/04/18 06:28:43;;;;;;;0.70;0.60;;;11.70;50.80;;;;;;4936776;29;20455;-71
2022/04/18 06:31:09;;;;;;;0.70;0.70;;;12.00;50.20;;;;;;4935934;29;20991;-71
2022/04/18 06:33:36;;;;;;;0.90;0.80;;;12.10;49.30;;;;;;4936412;29;20499;-71
2022/04/18 06:36:03;;;;;;;0.60;0.60;;;12.10;49.30;;;;;;4936501;29;20452;-72
2022/04/18 06:38:30;;;;;;;0.70;0.70;;;12.20;49.70;;;;;;4936296;29;20460;-71
2022/04/18 06:40:58;;;;;;;0.70;0.70;;;12.30;49.30;;;;;;4936221;29;20478;-72
2022/04/18 06:43:26;;;;;;;0.80;0.80;;;12.30;49.20;;;;;;4935809;29;20806;-71
2022/04/18 06:45:53;;;;;;;0.80;0.80;;;12.60;48.70;;;;;;4935816;29;20542;-71
2022/04/18 06:48:20;;;;;;;0.80;0.67;;;12.80;48.60;;;;;;4935743;29;20448;-71
2022/04/18 06:50:46;;;;;;;0.70;0.70;;;12.80;48.00;;;;;;4936252;29;20527;-71
2022/04/18 06:53:13;;;;;;;0.80;0.70;;;13.10;48.20;;;;;;4936027;29;20503;-71
2022/04/18 06:58:26;;;;;;;0.70;0.70;;;13.20;48.00;;;;;;4936281;29;20467;-71
2022/04/18 07:00:53;;;;;;;0.70;0.70;;;13.00;47.30;;;;;;4935675;29;20480;-72
2022/04/18 07:03:19;;;;;;;0.70;0.60;;;13.50;48.20;;;;;;4935403;29;20900;-72
2022/04/18 07:05:46;;;;;;;0.70;0.70;;;13.60;47.10;;;;;;4935625;29;20452;-71
2022/04/18 07:08:13;;;;;;;0.70;0.70;;;13.90;47.00;;;;;;4935278;29;20606;-71
2022/04/18 07:10:39;;;;;;;0.73;0.73;;;14.20;46.70;;;;;;4936035;29;20456;-72
2022/04/18 07:13:06;;;;;;;0.70;0.60;;;14.10;46.90;;;;;;4935385;29;20999;-72
2022/04/18 07:15:34;;;;;;;0.70;0.70;;;14.60;47.40;;;;;;4935189;29;21011;-72
2022/04/18 07:18:01;;;;;;;0.67;0.63;;;15.00;46.70;;;;;;4935623;29;20531;-71
2022/04/18 07:20:28;;;;;;;0.70;0.63;;;15.20;46.20;;;;;;4939137;29;20812;-71
2022/04/18 07:22:55;;;;;;;0.70;0.70;;;14.60;44.40;;;;;;4939538;29;20452;-71
2022/04/18 07:25:22;;;;;;;0.70;0.70;;;14.80;44.10;;;;;;4939612;29;20456;-71
2022/04/18 07:27:49;;;;;;;1.07;0.97;;;14.50;45.50;;;;;;4939297;29;20518;-72
2022/04/18 07:30:15;;;;;;;0.70;0.70;;;14.10;46.40;;;;;;4939354;29;20484;-73
2022/04/18 07:32:44;;;;;;;0.80;0.80;;;14.00;48.30;;;;;;4939589;29;20538;-72
2022/04/18 07:35:12;;;;;;;0.70;0.70;;;14.20;48.70;;;;;;4939036;29;20919;-71
2022/04/18 07:38:48;;;;;;;1.20;1.20;;;14.10;48.20;;;;;;4939027;29;20483;-71
2022/04/18 07:40:26;;;;;;;0.90;0.90;;;14.00;49.20;;;;;;4938727;29;20458;-71
2022/04/18 07:42:53;;;;;;;0.80;0.80;;;14.30;48.20;;;;;;4939125;29;20499;-71
2022/04/18 07:45:20;;;;;;;0.80;0.80;;;14.30;47.00;;;;;;4939149;29;20456;-72
2022/04/18 07:47:48;;;;;;;0.60;0.60;;;14.70;47.00;;;;;;4938943;29;20503;-71
2022/04/18 07:50:14;;;;;;;0.80;0.80;;;14.30;45.80;;;;;;4938958;29;20510;-71
2022/04/18 07:52:41;;;;;;;0.70;0.70;;;14.20;47.60;;;;;;4938765;29;20475;-71
2022/04/18 07:55:08;;;;;;;0.80;0.70;;;14.20;47.70;;;;;;4938745;29;20459;-71
2022/04/18 07:57:37;;;;;;;0.80;0.80;;;13.90;46.20;;;;;;4938700;29;20483;-72
2022/04/18 08:00:05;;;;;;;1.40;0.80;;;13.80;48.40;;;;;;4938880;29;20451;-73
2022/04/18 08:02:33;;;;;;;0.70;0.60;;;13.80;49.10;;;;;;4938499;29;20483;-71
2022/04/18 08:05:01;;;;;;;0.70;0.60;;;14.10;48.10;;;;;;4938689;29;20447;-71
2022/04/18 08:07:28;;;;;;;0.70;0.60;;;14.20;48.50;;;;;;4939161;29;20498;-72
2022/04/18 08:09:54;;;;;;;0.70;0.70;;;14.40;47.10;;;;;;4938413;29;20963;-72
2022/04/18 08:12:21;;;;;;;0.70;0.70;;;14.30;47.70;;;;;;4938337;29;20530;-72
2022/04/18 08:14:48;;;;;;;0.63;0.60;;;14.80;47.30;;;;;;4938278;29;20499;-72
2022/04/18 08:17:15;;;;;;;0.70;0.70;;;15.10;45.70;;;;;;4938241;29;20480;-73
2022/04/18 08:19:42;;;;;;;0.63;0.60;;;15.00;46.50;;;;;;4938375;29;20558;-72
2022/04/18 08:22:10;;;;;;;0.70;0.60;;;15.00;46.50;;;;;;4938281;29;20476;-72
2022/04/18 08:24:37;;;;;;;0.70;0.70;;;15.10;45.00;;;;;;4938160;29;20491;-72
2022/04/18 08:27:03;;;;;;;0.70;0.70;;;15.40;46.30;;;;;;4938277;29;20577;-72
2022/04/18 08:29:30;;;;;;;0.80;0.80;;;15.30;44.90;;;;;;4938010;29;20447;-72
2022/04/18 08:31:57;;;;;;;0.70;0.70;;;15.20;44.40;;;;;;4938538;29;20535;-72
2022/04/18 08:34:23;;;;;;;0.70;0.70;;;14.80;46.00;;;;;;4938334;29;20507;-72
2022/04/18 08:36:50;;;;;;;0.70;0.60;;;14.50;44.90;;;;;;4938037;29;20459;-72
2022/04/18 08:39:18;;;;;;;0.70;0.70;;;14.40;45.10;;;;;;4938094;29;20510;-72
2022/04/18 08:41:48;;;;;;;0.70;0.70;;;14.40;47.30;;;;;;4937767;29;20825;-72
2022/04/18 08:44:16;;;;;;;0.70;0.70;;;14.50;46.10;;;;;;4938171;29;20869;-72
2022/04/18 08:46:43;;;;;;;0.70;0.70;;;14.60;47.20;;;;;;4937918;29;20499;-71
2022/04/18 08:54:44;;;;;;;0.70;0.70;;;15.40;46.30;;;;;;4937828;29;20548;-72
2022/04/18 08:57:10;;;;;;;0.70;0.70;;;15.20;44.80;;;;;;4937537;29;20487;-71
2022/04/18 08:59:37;;;;;;;0.70;0.70;;;15.00;45.30;;;;;;4937705;29;20485;-71
2022/04/18 09:02:04;;;;;;;0.70;0.70;;;14.80;46.10;;;;;;4937416;29;20491;-72
2022/04/18 09:04:31;;;;;;;0.70;0.70;;;14.70;45.30;;;;;;4937719;29;20455;-71
2022/04/18 09:07:09;;;;;;;0.67;0.60;;;14.60;46.30;;;;;;4937318;29;21012;-71
2022/04/18 09:09:37;;;;;;;0.70;0.70;;;14.50;46.20;;;;;;4938283;29;20436;-72
2022/04/18 09:12:17;;;;;;;0.70;0.70;;;14.30;45.90;;;;;;4937472;29;20475;-71
2022/04/18 09:17:11;;;;;;;0.70;0.63;;;14.30;46.40;;;;;;4917271;29;20553;-76
2022/04/18 09:19:38;;;;;;;0.60;0.60;;;14.30;46.30;;;;;;4906798;29;20486;-76
2022/04/18 09:22:06;;;;;;;0.70;0.60;;;14.50;47.00;;;;;;4905982;29;20458;-76
2022/04/18 09:24:34;;;;;;;0.60;0.60;;;14.40;45.80;;;;;;4903191;29;20476;-76
2022/04/18 09:27:07;;;;;;;0.70;0.70;;;14.20;45.00;;;;;;4903196;29;20546;-76
2022/04/18 09:29:38;;;;;;;0.70;0.70;;;14.50;46.70;;;;;;4902771;29;20501;-76
2022/04/18 09:32:08;;;;;;;0.70;0.60;;;14.80;47.00;;;;;;4903521;29;20537;-76
2022/04/18 09:34:34;;;;;;;0.60;0.60;;;14.80;44.70;;;;;;4901959;29;20450;-76
2022/04/18 09:37:11;;;;;;;0.70;0.70;;;14.40;44.40;;;;;;4901870;29;20452;-75
2022/04/18 09:39:38;;;;;;;0.70;0.70;;;14.30;45.60;;;;;;4900961;29;20465;-75
2022/04/18 09:42:10;;;;;;;0.60;0.60;;;14.40;45.50;;;;;;4900086;29;20490;-76
2022/04/18 09:44:37;;;;;;;0.70;0.60;;;14.10;45.60;;;;;;4902789;29;20461;-76
2022/04/18 09:47:04;;;;;;;0.70;0.70;;;14.10;47.00;;;;;;4902386;29;20469;-75
2022/04/18 09:49:37;;;;;;;0.80;0.80;;;14.40;46.70;;;;;;4900521;29;20457;-76
2022/04/18 09:52:06;;;;;;;0.80;0.70;;;14.60;45.70;;;;;;4903403;29;20521;-76
2022/04/18 09:54:33;;;;;;;0.60;0.60;;;15.10;45.40;;;;;;4899870;29;20454;-76
2022/04/18 09:57:05;;;;;;;0.80;0.80;;;15.20;45.40;;;;;;4900307;29;20453;-76
2022/04/18 09:59:33;;;;;;;0.70;0.70;;;15.40;44.40;;;;;;4899608;29;20784;-75
2022/04/18 10:02:01;;;;;;;0.70;0.70;;;15.60;43.50;;;;;;4899891;29;20462;-76
2022/04/18 10:04:29;;;;;;;0.70;0.70;;;15.80;43.30;;;;;;4900110;29;21017;-75
2022/04/18 10:06:57;;;;;;;0.73;0.73;;;15.90;43.40;;;;;;4900181;29;20465;-76
2022/04/18 10:09:24;;;;;;;0.70;0.70;;;15.90;45.10;;;;;;4899578;29;20533;-75
2022/04/18 10:11:51;;;;;;;0.70;0.70;;;15.90;43.90;;;;;;4899179;29;20449;-76
2022/04/18 10:14:18;;;;;;;0.70;0.70;;;16.20;42.80;;;;;;4900245;29;20450;-76
2022/04/18 10:16:46;;;;;;;0.80;0.70;;;16.50;43.30;;;;;;4899542;29;20510;-76
2022/04/18 10:19:29;;;;;;;0.70;0.70;;;16.50;42.30;;;;;;4899400;29;20489;-76
2022/04/18 10:22:06;;;;;;;0.70;0.70;;;16.40;42.40;;;;;;4898979;29;20841;-76
2022/04/18 10:24:47;;;;;;;0.80;0.80;;;16.50;42.50;;;;;;4898543;29;20437;-75
2022/04/18 10:27:59;;;;;;;0.70;0.60;;;16.80;42.30;;;;;;4898892;29;20445;-76
2022/04/18 10:30:27;;;;;;;0.60;0.60;;;17.00;41.60;;;;;;4893154;29;20465;-76
2022/04/18 10:32:56;;;;;;;0.60;0.60;;;17.00;41.80;;;;;;4898727;29;20454;-76
2022/04/18 10:35:23;;;;;;;0.70;0.70;;;16.80;40.70;;;;;;4898633;29;20470;-76
2022/04/18 10:37:54;;;;;;;0.70;0.70;;;16.80;41.70;;;;;;4898550;29;20485;-76
2022/04/18 10:40:23;;;;;;;0.60;0.60;;;16.90;41.60;;;;;;4898856;29;20485;-76
2022/04/18 10:42:50;;;;;;;0.67;0.67;;;16.60;40.20;;;;;;4898630;29;20513;-76
2022/04/18 10:45:20;;;;;;;0.70;0.70;;;16.50;41.30;;;;;;4898538;29;20481;-76
2022/04/18 10:48:09;;;;;;;0.60;0.60;;;16.60;39.70;;;;;;4898606;29;20437;-76
2022/04/18 10:50:38;;;;;;;0.80;0.70;;;16.90;41.40;;;;;;4898562;29;20524;-76
2022/04/18 10:53:12;;;;;;;0.63;0.63;;;17.00;41.00;;;;;;4898439;29;20505;-76
2022/04/18 10:55:41;;;;;;;0.80;0.70;;;17.10;41.20;;;;;;4898283;29;21036;-76
2022/04/18 10:58:13;;;;;;;0.70;0.70;;;17.20;41.30;;;;;;4898445;29;20493;-76
2022/04/18 11:00:51;;;;;;;0.70;0.70;;;17.40;41.90;;;;;;4898499;29;20548;-76
2022/04/18 11:03:40;;;;;;;0.80;0.70;;;17.40;40.30;;;;;;4898452;29;20438;-75
2022/04/18 11:06:09;;;;;;;0.70;0.70;;;17.60;41.30;;;;;;4898198;29;21036;-75
2022/04/18 11:08:37;;;;;;;0.67;0.60;;;17.40;39.60;;;;;;4898387;29;20536;-76
2022/04/18 11:11:04;;;;;;;0.60;0.60;;;17.10;39.50;;;;;;4898179;29;20954;-75
2022/04/18 11:13:32;;;;;;;0.70;0.70;;;16.90;40.30;;;;;;4898252;29;20461;-76
2022/04/18 11:16:05;;;;;;;0.60;0.60;;;17.00;41.20;;;;;;4897912;29;20564;-76
2022/04/18 11:18:33;;;;;;;0.80;0.80;;;17.20;41.30;;;;;;4898118;29;20489;-76
2022/04/18 11:21:01;;;;;;;0.60;0.60;;;17.10;39.30;;;;;;4897891;29;20500;-76
2022/04/18 11:23:28;;;;;;;0.60;0.60;;;16.80;40.70;;;;;;4897944;29;20941;-76
2022/04/18 11:26:00;;;;;;;0.77;0.77;;;16.90;40.00;;;;;;4897803;29;20981;-75
2022/04/18 11:28:33;;;;;;;0.70;0.60;;;17.10;40.80;;;;;;4898251;29;20549;-76
2022/04/18 11:31:00;;;;;;;0.60;0.60;;;17.00;39.60;;;;;;4898259;29;20531;-76
2022/04/18 11:33:26;;;;;;;0.60;0.60;;;17.10;40.80;;;;;;4898108;29;20462;-76
2022/04/18 11:36:04;;;;;;;0.70;0.70;;;17.30;39.90;;;;;;4897757;29;21054;-76
2022/04/18 11:38:30;;;;;;;0.73;0.73;;;17.00;39.20;;;;;;4898063;29;20595;-76
2022/04/18 11:40:58;;;;;;;0.70;0.60;;;17.10;40.30;;;;;;4898033;29;20458;-76
2022/04/18 11:43:25;;;;;;;0.70;0.63;;;17.10;41.30;;;;;;4898075;29;20457;-75
2022/04/18 11:45:51;;;;;;;0.70;0.70;;;17.40;40.70;;;;;;4897980;29;20465;-76
2022/04/18 11:48:23;;;;;;;0.70;0.70;;;17.30;39.90;;;;;;4897702;29;20509;-76
2022/04/18 11:50:50;;;;;;;0.67;0.67;;;17.50;41.60;;;;;;4898005;29;20452;-76
2022/04/18 11:53:18;;;;;;;0.70;0.70;;;17.80;40.60;;;;;;4897972;29;20446;-76
2022/04/18 11:55:46;;;;;;;0.70;0.70;;;17.70;39.70;;;;;;4897874;29;20469;-76
2022/04/18 11:58:18;;;;;;;0.70;0.70;;;17.50;39.40;;;;;;4897829;29;20493;-76
2022/04/18 12:09:02;;;;;;;0.70;0.70;;;17.90;40.50;;;;;;4901359;29;20413;-76
2022/04/18 12:11:34;;;;;;;0.60;0.60;;;18.10;39.20;;;;;;4901252;29;20462;-76
2022/04/18 12:14:01;;;;;;;0.70;0.70;;;18.20;39.30;;;;;;4901172;29;20501;-76
2022/04/18 12:16:28;;;;;;;0.70;0.60;;;18.40;39.20;;;;;;4900871;29;20867;-76
2022/04/18 12:18:55;;;;;;;0.70;0.70;;;18.60;39.60;;;;;;4900825;29;20517;-76
2022/04/18 12:21:24;;;;;;;0.70;0.67;;;18.80;40.00;;;;;;4901145;29;20453;-76
2022/04/18 12:23:53;;;;;;;0.70;0.70;;;18.50;38.20;;;;;;4900868;29;20464;-76
2022/04/18 12:26:25;;;;;;;0.70;0.70;;;18.30;39.00;;;;;;4900985;29;20469;-76
2022/04/18 12:28:57;;;;;;;0.70;0.70;;;18.20;39.80;;;;;;4901031;29;20480;-76
2022/04/18 12:31:24;;;;;;;0.70;0.70;;;18.20;40.10;;;;;;4900594;29;20816;-76
2022/04/18 12:33:51;;;;;;;0.80;0.80;;;18.70;38.80;;;;;;4901173;29;20841;-76
2022/04/18 12:36:26;;;;;;;1.10;1.00;;;18.90;39.30;;;;;;4900790;29;20480;-76
2022/04/18 12:38:53;;;;;;;1.10;0.80;;;19.40;39.20;;;;;;4900787;29;20496;-76
2022/04/18 12:41:30;;;;;;;0.67;0.63;;;19.30;37.90;;;;;;4900907;29;20457;-76
2022/04/18 12:43:57;;;;;;;0.70;0.70;;;19.40;38.20;;;;;;4900793;29;20448;-76
2022/04/18 12:46:25;;;;;;;0.80;0.70;;;19.20;38.80;;;;;;4900511;29;20533;-76
2022/04/18 12:48:53;;;;;;;0.60;0.60;;;19.40;38.30;;;;;;4900595;29;20541;-76
2022/04/18 12:51:30;;;;;;;0.60;0.60;;;19.40;39.30;;;;;;4900525;29;20941;-76
2022/04/18 12:53:57;;;;;;;0.70;0.70;;;19.40;40.40;;;;;;4900607;29;20444;-76
2022/04/18 12:56:25;;;;;;;0.60;0.60;;;19.50;38.70;;;;;;4900471;29;20481;-76
2022/04/18 12:59:03;;;;;;;0.70;0.70;;;19.70;38.50;;;;;;4900382;29;20493;-76
2022/04/18 13:01:32;;;;;;;0.77;0.70;;;19.90;38.00;;;;;;4900690;29;20437;-76
2022/04/18 13:04:00;;;;;;;0.60;0.60;;;19.70;37.40;;;;;;4900387;29;20457;-76
2022/04/18 13:06:28;;;;;;;0.70;0.70;;;19.20;38.00;;;;;;4900318;29;20465;-76
2022/04/18 13:08:57;;;;;;;0.80;0.80;;;19.20;38.50;;;;;;4900915;29;20497;-76
2022/04/18 13:11:35;;;;;;;0.80;0.80;;;19.20;38.60;;;;;;4900303;29;20540;-76
2022/04/18 13:14:04;;;;;;;0.70;0.70;;;18.80;38.40;;;;;;4899995;29;20838;-76
2022/04/18 13:16:31;;;;;;;0.70;0.70;;;19.10;38.90;;;;;;4899763;29;20488;-77
2022/04/18 13:18:58;;;;;;;0.83;0.80;;;18.70;37.90;;;;;;4900103;29;20485;-76
2022/04/18 13:21:25;;;;;;;0.70;0.70;;;18.60;37.90;;;;;;4900085;29;20505;-76
2022/04/18 13:23:52;;;;;;;0.70;0.70;;;18.90;39.30;;;;;;4899760;29;20829;-76
2022/04/18 13:26:19;;;;;;;0.70;0.70;;;18.70;38.60;;;;;;4899992;29;20470;-76
2022/04/18 13:28:45;;;;;;;0.70;0.70;;;18.40;38.60;;;;;;4900004;29;20877;-76
2022/04/18 13:31:13;;;;;;;0.70;0.70;;;18.40;40.50;;;;;;4899577;29;20961;-76
2022/04/18 13:33:40;;;;;;;0.70;0.60;;;19.00;38.40;;;;;;4899848;29;20950;-76
2022/04/18 13:39:00;;;;;;;0.63;0.63;;;19.10;38.60;;;;;;4865546;29;20852;-76
2022/04/18 13:41:27;;;;;;;0.70;0.70;;;19.00;39.00;;;;;;4899760;29;20458;-76
2022/04/18 13:43:54;;;;;;;0.63;0.60;;;18.80;38.40;;;;;;4899689;29;20454;-76
2022/04/18 13:46:22;;;;;;;0.70;0.70;;;18.60;38.70;;;;;;4899576;29;20486;-76
2022/04/18 13:48:50;;;;;;;0.70;0.70;;;18.80;39.40;;;;;;4899418;29;20867;-76
2022/04/18 13:51:17;;;;;;;0.70;0.70;;;18.60;38.20;;;;;;4899376;29;20826;-76
2022/04/18 13:53:43;;;;;;;0.73;0.73;;;18.30;39.60;;;;;;4899507;29;20466;-76
2022/04/18 13:56:10;;;;;;;1.43;0.80;;;18.30;38.30;;;;;;4899428;29;20489;-76
2022/04/18 13:58:37;;;;;;;0.60;0.60;;;18.40;38.40;;;;;;4899318;29;20460;-76
2022/04/18 14:01:04;;;;;;;0.63;0.63;;;19.00;37.90;;;;;;4899074;29;20966;-76
2022/04/18 14:03:33;;;;;;;0.70;0.70;;;19.60;38.30;;;;;;4899378;29;20800;-76
2022/04/18 14:06:02;;;;;;;0.70;0.60;;;19.90;37.60;;;;;;4899413;29;20482;-76
2022/04/18 14:08:29;;;;;;;0.67;0.67;;;20.10;37.50;;;;;;4899167;29;20536;-76
2022/04/18 14:10:56;;;;;;;0.70;0.70;;;20.00;37.80;;;;;;4899135;29;20461;-76
2022/04/18 14:13:22;;;;;;;0.63;0.60;;;19.90;38.60;;;;;;4899227;29;20469;-76
2022/04/18 14:21:20;;;;;;;0.70;0.70;;;20.50;37.40;;;;;;4899454;29;20413;-76
2022/04/18 14:23:47;;;;;;;0.67;0.63;;;20.70;36.10;;;;;;4899459;29;20455;-76
2022/04/18 14:26:15;;;;;;;0.70;0.70;;;20.40;36.80;;;;;;4899859;29;20473;-76
2022/04/18 14:28:42;;;;;;;0.70;0.67;;;20.00;35.80;;;;;;4898766;29;20457;-76
2022/04/18 14:31:09;;;;;;;0.60;0.60;;;19.60;36.90;;;;;;4898927;29;20457;-76
2022/04/18 14:33:37;;;;;;;0.80;0.70;;;19.60;37.80;;;;;;4898870;29;20508;-76
2022/04/18 14:36:07;;;;;;;0.60;0.60;;;19.70;37.60;;;;;;4898683;29;20528;-76
2022/04/18 14:38:34;;;;;;;0.70;0.67;;;19.80;37.80;;;;;;4898686;29;20468;-76
2022/04/18 14:41:00;;;;;;;0.90;0.90;;;19.90;37.80;;;;;;4898679;29;20525;-76
2022/04/18 14:43:28;;;;;;;0.70;0.70;;;20.10;36.70;;;;;;4898710;29;20561;-76
2022/04/18 14:45:55;;;;;;;0.70;0.63;;;20.40;35.80;;;;;;4898476;29;20480;-76
2022/04/18 14:48:21;;;;;;;0.70;0.70;;;20.70;35.50;;;;;;4898555;29;20449;-76
2022/04/18 14:50:49;;;;;;;1.40;0.70;;;21.30;35.60;;;;;;4898631;29;20482;-76
2022/04/18 14:53:16;;;;;;;0.70;0.60;;;21.60;33.60;;;;;;4898598;29;20461;-76
2022/04/18 14:55:43;;;;;;;0.60;0.60;;;22.00;33.60;;;;;;4898405;29;20985;-76
2022/04/18 14:58:10;;;;;;;0.60;0.60;;;22.10;33.40;;;;;;4898491;29;20453;-77
2022/04/18 15:00:37;;;;;;;0.60;0.60;;;23.50;33.20;;;;;;4898483;29;20485;-77
2022/04/18 15:03:05;;;;;;;0.70;0.70;;;25.00;30.70;;;;;;4898292;29;20783;-76
2022/04/18 15:05:32;;;;;;;0.60;0.60;;;25.00;30.50;;;;;;4898359;29;20581;-77
2022/04/18 15:08:00;;;;;;;0.70;0.60;;;25.30;30.30;;;;;;4898547;29;20505;-77
2022/04/18 15:10:27;;;;;;;0.70;0.60;;;26.70;30.50;;;;;;4898353;29;20527;-77
2022/04/18 15:12:54;;;;;;;0.70;0.60;;;27.60;29.30;;;;;;4898280;29;20540;-77
2022/04/18 15:15:22;;;;;;;0.70;0.60;;;27.20;27.80;;;;;;5001101;23;21495;-73
2022/04/18 15:17:49;;;;;;;0.70;0.60;;;26.90;29.20;;;;;;4916703;29;20539;-73
2022/04/18 15:20:15;;;;;;;0.70;0.63;;;26.70;28.80;;;;;;4916527;29;20536;-74
2022/04/18 15:22:42;;;;;;;0.70;0.60;;;26.80;28.70;;;;;;4916523;29;20456;-74
2022/04/18 15:25:11;;;;;;;0.60;0.60;;;26.00;29.90;;;;;;4916516;29;20456;-73
2022/04/18 15:27:38;;;;;;;0.70;0.60;;;26.00;30.50;;;;;;4916609;29;20556;-73
2022/04/18 15:32:50;;;;;;;1.93;0.70;;;26.00;30.00;;;;;;4916651;29;20416;-73
2022/04/18 15:35:18;;;;;;;0.60;0.60;;;26.30;29.70;;;;;;4916157;29;21177;-73
2022/04/18 15:37:44;;;;;;;0.70;0.60;;;26.70;28.30;;;;;;4916609;29;20486;-73
2022/04/18 15:40:13;;;;;;;0.70;0.70;;;26.00;28.80;;;;;;4918633;29;20543;-73
2022/04/18 15:42:40;;;;;;;0.70;0.60;;;24.40;31.20;;;;;;4920292;29;20456;-73
2022/04/18 15:45:07;;;;;;;0.60;0.60;;;23.60;31.60;;;;;;4920651;29;20461;-73
2022/04/18 15:47:34;;;;;;;0.70;0.70;;;22.70;33.60;;;;;;4919862;29;20948;-73
2022/04/18 15:50:00;;;;;;;0.80;0.80;;;22.30;34.30;;;;;;4919800;29;20453;-73
2022/04/18 15:52:27;;;;;;;0.70;0.57;;;22.20;34.60;;;;;;4919826;29;20940;-74
2022/04/18 15:54:54;;;;;;;0.70;0.70;;;21.90;34.30;;;;;;4920110;29;20484;-73
2022/04/18 15:57:22;;;;;;;0.60;0.60;;;21.40;34.90;;;;;;4919894;29;20477;-73
2022/04/18 15:59:48;;;;;;;0.70;0.70;;;21.30;35.70;;;;;;4919892;29;20479;-73
2022/04/18 16:02:16;;;;;;;0.70;0.70;;;21.00;35.10;;;;;;4919925;29;20512;-74
2022/04/18 16:04:42;;;;;;;0.67;0.60;;;20.60;35.60;;;;;;4919940;29;20452;-73
2022/04/18 16:07:10;;;;;;;0.70;0.60;;;20.40;35.60;;;;;;4919805;29;20552;-73
2022/04/18 16:09:36;;;;;;;0.60;0.60;;;19.80;36.60;;;;;;4919940;29;20457;-73
2022/04/18 16:12:04;;;;;;;0.63;0.60;;;19.70;37.70;;;;;;4919856;29;20456;-73
2022/04/18 16:14:32;;;;;;;0.60;0.60;;;19.70;38.20;;;;;;4919924;29;20603;-73
2022/04/18 16:17:00;;;;;;;0.60;0.60;;;19.90;38.00;;;;;;4919474;29;20513;-73
2022/04/18 16:19:27;;;;;;;0.67;0.63;;;19.60;36.80;;;;;;4919540;29;20580;-73
2022/04/18 16:21:54;;;;;;;0.70;0.70;;;18.80;37.80;;;;;;4919738;29;20452;-72
2022/04/18 16:24:20;;;;;;;0.67;0.60;;;18.60;39.00;;;;;;4920171;29;20452;-73
2022/04/18 16:26:47;;;;;;;0.67;0.53;;;18.70;38.80;;;;;;4919982;29;20472;-72
2022/04/18 16:31:59;;;;;;;0.87;0.67;;;19.10;38.90;;;;;;4919919;29;20504;-72